sensor_id;sensor_type;location;lat;lon;timestamp;temperature;humidity
326;DHT22;150;52.352;14.058;2024-03-22T00:01:47;9.60;31.80
326;DHT22;150;52.352;14.058;2024-03-22T00:04:14;9.50;31.50
326;DHT22;150;52.352;14.058;2024-03-22T00:06:41;9.50;31.70
326;DHT22;150;52.352;14.058;2024-03-22T00:09:08;9.50;31.80
326;DHT22;150;52.352;14.058;2024-03-22T00:11:34;9.50;32.10
326;DHT22;150;52.352;14.058;2024-03-22T00:14:01;9.50;32.00
326;DHT22;150;52.352;14.058;2024-03-22T00:16:27;9.50;32.30
326;DHT22;150;52.352;14.058;2024-03-22T00:18:55;9.60;32.50
326;DHT22;150;52.352;14.058;2024-03-22T00:21:21;9.60;32.40
326;DHT22;150;52.352;14.058;2024-03-22T00:23:47;9.60;32.30
326;DHT22;150;52.352;14.058;2024-03-22T00:26:13;9.60;31.60
326;DHT22;150;52.352;14.058;2024-03-22T00:28:40;9.50;31.80
326;DHT22;150;52.352;14.058;2024-03-22T00:31:05;9.40;32.00
326;DHT22;150;52.352;14.058;2024-03-22T00:33:32;9.40;31.50
326;DHT22;150;52.352;14.058;2024-03-22T00:35:59;9.30;32.00
326;DHT22;150;52.352;14.058;2024-03-22T00:38:25;9.30;32.40
326;DHT22;150;52.352;14.058;2024-03-22T00:40:51;9.30;32.40
326;DHT22;150;52.352;14.058;2024-03-22T00:43:18;9.30;32.00
326;DHT22;150;52.352;14.058;2024-03-22T00:45:43;9.30;32.30
326;DHT22;150;52.352;14.058;2024-03-22T00:48:10;9.30;31.80
326;DHT22;150;52.352;14.058;2024-03-22T00:50:35;9.30;32.30
326;DHT22;150;52.352;14.058;2024-03-22T00:53:04;9.30;32.10
326;DHT22;150;52.352;14.058;2024-03-22T00:55:31;9.30;32.30
326;DHT22;150;52.352;14.058;2024-03-22T00:57:57;9.30;32.10
326;DHT22;150;52.352;14.058;2024-03-22T01:00:24;9.30;31.90
326;DHT22;150;52.352;14.058;2024-03-22T01:02:50;9.30;32.10
326;DHT22;150;52.352;14.058;2024-03-22T01:05:16;9.30;32.00
326;DHT22;150;52.352;14.058;2024-03-22T01:07:43;9.30;32.40
326;DHT22;150;52.352;14.058;2024-03-22T01:10:10;9.30;32.10
326;DHT22;150;52.352;14.058;2024-03-22T01:12:37;9.30;32.00
326;DHT22;150;52.352;14.058;2024-03-22T01:15:05;9.30;32.10
326;DHT22;150;52.352;14.058;2024-03-22T01:17:32;9.30;32.20
326;DHT22;150;52.352;14.058;2024-03-22T01:19:58;9.30;32.10
326;DHT22;150;52.352;14.058;2024-03-22T01:22:25;9.30;32.00
326;DHT22;150;52.352;14.058;2024-03-22T01:24:50;9.30;32.00
326;DHT22;150;52.352;14.058;2024-03-22T01:27:18;9.30;32.20
326;DHT22;150;52.352;14.058;2024-03-22T01:29:44;9.20;32.10
326;DHT22;150;52.352;14.058;2024-03-22T01:32:10;9.20;32.50
326;DHT22;150;52.352;14.058;2024-03-22T01:34:36;9.20;32.80
326;DHT22;150;52.352;14.058;2024-03-22T01:37:03;9.20;32.90
326;DHT22;150;52.352;14.058;2024-03-22T01:39:28;9.20;32.80
326;DHT22;150;52.352;14.058;2024-03-22T01:41:55;9.10;32.90
326;DHT22;150;52.352;14.058;2024-03-22T01:44:27;9.00;33.30
326;DHT22;150;52.352;14.058;2024-03-22T01:46:54;8.90;33.30
326;DHT22;150;52.352;14.058;2024-03-22T01:49:20;8.90;33.80
326;DHT22;150;52.352;14.058;2024-03-22T01:51:47;8.90;33.90
326;DHT22;150;52.352;14.058;2024-03-22T01:54:15;9.00;34.20
326;DHT22;150;52.352;14.058;2024-03-22T01:56:42;9.00;34.10
326;DHT22;150;52.352;14.058;2024-03-22T01:59:08;8.90;33.40
326;DHT22;150;52.352;14.058;2024-03-22T02:01:36;8.90;34.20
326;DHT22;150;52.352;14.058;2024-03-22T02:04:02;8.90;34.40
326;DHT22;150;52.352;14.058;2024-03-22T02:06:29;8.90;33.90
326;DHT22;150;52.352;14.058;2024-03-22T02:08:55;8.90;34.20
326;DHT22;150;52.352;14.058;2024-03-22T02:11:22;8.90;34.20
326;DHT22;150;52.352;14.058;2024-03-22T02:13:48;8.90;34.40
326;DHT22;150;52.352;14.058;2024-03-22T02:16:16;8.90;34.40
326;DHT22;150;52.352;14.058;2024-03-22T02:18:43;8.90;34.00
326;DHT22;150;52.352;14.058;2024-03-22T02:21:10;8.90;34.20
326;DHT22;150;52.352;14.058;2024-03-22T02:23:38;8.90;34.30
326;DHT22;150;52.352;14.058;2024-03-22T02:26:06;8.90;34.60
326;DHT22;150;52.352;14.058;2024-03-22T02:28:32;8.90;34.60
326;DHT22;150;52.352;14.058;2024-03-22T02:30:59;8.80;34.30
326;DHT22;150;52.352;14.058;2024-03-22T02:33:25;8.80;34.30
326;DHT22;150;52.352;14.058;2024-03-22T02:35:52;8.80;34.70
326;DHT22;150;52.352;14.058;2024-03-22T02:38:18;8.70;34.60
326;DHT22;150;52.352;14.058;2024-03-22T02:40:47;8.70;34.90
326;DHT22;150;52.352;14.058;2024-03-22T02:43:13;8.80;35.00
326;DHT22;150;52.352;14.058;2024-03-22T02:45:40;8.80;35.00
326;DHT22;150;52.352;14.058;2024-03-22T02:48:07;8.80;35.20
326;DHT22;150;52.352;14.058;2024-03-22T02:50:33;8.80;34.90
326;DHT22;150;52.352;14.058;2024-03-22T02:52:59;8.70;35.30
326;DHT22;150;52.352;14.058;2024-03-22T02:55:25;8.70;35.40
326;DHT22;150;52.352;14.058;2024-03-22T02:57:52;8.60;35.60
326;DHT22;150;52.352;14.058;2024-03-22T03:00:19;8.60;36.30
326;DHT22;150;52.352;14.058;2024-03-22T03:02:45;8.60;36.20
326;DHT22;150;52.352;14.058;2024-03-22T03:05:12;8.60;36.30
326;DHT22;150;52.352;14.058;2024-03-22T03:07:37;8.60;36.10
326;DHT22;150;52.352;14.058;2024-03-22T03:10:04;8.60;36.60
326;DHT22;150;52.352;14.058;2024-03-22T03:12:30;8.60;36.70
326;DHT22;150;52.352;14.058;2024-03-22T03:14:58;8.50;37.40
326;DHT22;150;52.352;14.058;2024-03-22T03:17:24;8.40;37.80
326;DHT22;150;52.352;14.058;2024-03-22T03:19:50;8.30;38.40
326;DHT22;150;52.352;14.058;2024-03-22T03:22:16;8.30;39.00
326;DHT22;150;52.352;14.058;2024-03-22T03:24:44;8.20;39.40
326;DHT22;150;52.352;14.058;2024-03-22T03:27:09;8.10;39.80
326;DHT22;150;52.352;14.058;2024-03-22T03:29:36;8.10;40.60
326;DHT22;150;52.352;14.058;2024-03-22T03:32:04;8.20;40.80
326;DHT22;150;52.352;14.058;2024-03-22T03:34:30;8.20;40.80
326;DHT22;150;52.352;14.058;2024-03-22T03:36:56;8.30;40.50
326;DHT22;150;52.352;14.058;2024-03-22T03:39:26;8.30;40.20
326;DHT22;150;52.352;14.058;2024-03-22T03:41:51;8.30;39.70
326;DHT22;150;52.352;14.058;2024-03-22T03:44:18;8.30;40.00
326;DHT22;150;52.352;14.058;2024-03-22T03:46:43;8.20;39.90
326;DHT22;150;52.352;14.058;2024-03-22T03:49:11;8.30;39.90
326;DHT22;150;52.352;14.058;2024-03-22T03:51:37;8.30;39.60
326;DHT22;150;52.352;14.058;2024-03-22T03:54:03;8.20;39.60
326;DHT22;150;52.352;14.058;2024-03-22T03:56:29;8.20;39.90
326;DHT22;150;52.352;14.058;2024-03-22T03:58:56;8.20;40.30
326;DHT22;150;52.352;14.058;2024-03-22T04:01:21;8.20;39.80
326;DHT22;150;52.352;14.058;2024-03-22T04:03:49;8.30;39.80
326;DHT22;150;52.352;14.058;2024-03-22T04:06:16;8.30;40.10
326;DHT22;150;52.352;14.058;2024-03-22T04:08:43;8.30;39.10
326;DHT22;150;52.352;14.058;2024-03-22T04:11:08;8.40;39.50
326;DHT22;150;52.352;14.058;2024-03-22T04:13:35;8.40;39.40
326;DHT22;150;52.352;14.058;2024-03-22T04:16:01;8.40;38.90
326;DHT22;150;52.352;14.058;2024-03-22T04:18:27;8.50;38.50
326;DHT22;150;52.352;14.058;2024-03-22T04:20:53;8.40;38.10
326;DHT22;150;52.352;14.058;2024-03-22T04:23:22;8.50;38.60
326;DHT22;150;52.352;14.058;2024-03-22T04:25:52;8.50;38.20
326;DHT22;150;52.352;14.058;2024-03-22T04:28:19;8.40;38.10
326;DHT22;150;52.352;14.058;2024-03-22T04:30:54;8.40;38.60
326;DHT22;150;52.352;14.058;2024-03-22T04:33:21;8.40;38.70
326;DHT22;150;52.352;14.058;2024-03-22T04:35:46;8.40;38.10
326;DHT22;150;52.352;14.058;2024-03-22T04:38:13;8.30;38.40
326;DHT22;150;52.352;14.058;2024-03-22T04:40:41;8.30;38.50
326;DHT22;150;52.352;14.058;2024-03-22T04:43:08;8.30;38.40
326;DHT22;150;52.352;14.058;2024-03-22T04:45:33;8.30;38.70
326;DHT22;150;52.352;14.058;2024-03-22T04:48:01;8.30;38.40
326;DHT22;150;52.352;14.058;2024-03-22T04:50:26;8.40;38.10
326;DHT22;150;52.352;14.058;2024-03-22T04:52:53;8.40;38.10
326;DHT22;150;52.352;14.058;2024-03-22T04:55:19;8.40;37.70
326;DHT22;150;52.352;14.058;2024-03-22T04:57:47;8.40;37.90
326;DHT22;150;52.352;14.058;2024-03-22T05:00:14;8.40;37.70
326;DHT22;150;52.352;14.058;2024-03-22T05:02:40;8.40;37.40
326;DHT22;150;52.352;14.058;2024-03-22T05:05:07;8.40;37.10
326;DHT22;150;52.352;14.058;2024-03-22T05:07:33;8.40;37.00
326;DHT22;150;52.352;14.058;2024-03-22T05:10:01;8.40;37.20
326;DHT22;150;52.352;14.058;2024-03-22T05:12:27;8.40;37.40
326;DHT22;150;52.352;14.058;2024-03-22T05:14:55;8.40;37.20
326;DHT22;150;52.352;14.058;2024-03-22T05:17:20;8.40;37.30
326;DHT22;150;52.352;14.058;2024-03-22T05:19:47;8.50;37.10
326;DHT22;150;52.352;14.058;2024-03-22T05:22:15;8.50;37.20
326;DHT22;150;52.352;14.058;2024-03-22T05:24:41;8.50;36.40
326;DHT22;150;52.352;14.058;2024-03-22T05:27:07;8.60;36.10
326;DHT22;150;52.352;14.058;2024-03-22T05:29:34;8.60;36.40
326;DHT22;150;52.352;14.058;2024-03-22T05:32:01;8.60;36.40
326;DHT22;150;52.352;14.058;2024-03-22T05:34:29;8.60;36.10
326;DHT22;150;52.352;14.058;2024-03-22T05:36:54;8.70;35.80
326;DHT22;150;52.352;14.058;2024-03-22T05:39:21;8.70;35.90
326;DHT22;150;52.352;14.058;2024-03-22T05:41:46;8.70;35.50
326;DHT22;150;52.352;14.058;2024-03-22T05:44:13;8.70;35.40
326;DHT22;150;52.352;14.058;2024-03-22T05:46:38;8.60;35.30
326;DHT22;150;52.352;14.058;2024-03-22T05:49:06;8.60;35.80
326;DHT22;150;52.352;14.058;2024-03-22T05:51:33;8.60;35.80
326;DHT22;150;52.352;14.058;2024-03-22T05:53:59;8.70;35.80
326;DHT22;150;52.352;14.058;2024-03-22T05:56:25;8.70;35.70
326;DHT22;150;52.352;14.058;2024-03-22T05:58:52;8.70;35.20
326;DHT22;150;52.352;14.058;2024-03-22T06:01:17;8.70;35.20
326;DHT22;150;52.352;14.058;2024-03-22T06:03:44;8.70;35.30
326;DHT22;150;52.352;14.058;2024-03-22T06:06:11;8.70;35.40
326;DHT22;150;52.352;14.058;2024-03-22T06:08:38;8.80;34.90
326;DHT22;150;52.352;14.058;2024-03-22T06:11:06;8.90;35.30
326;DHT22;150;52.352;14.058;2024-03-22T06:13:33;9.00;34.90
326;DHT22;150;52.352;14.058;2024-03-22T06:16:00;9.00;34.40
326;DHT22;150;52.352;14.058;2024-03-22T06:18:26;9.10;34.00
326;DHT22;150;52.352;14.058;2024-03-22T06:20:52;9.10;33.80
326;DHT22;150;52.352;14.058;2024-03-22T06:23:21;9.00;34.10
326;DHT22;150;52.352;14.058;2024-03-22T06:25:51;9.10;34.30
326;DHT22;150;52.352;14.058;2024-03-22T06:28:17;9.10;33.70
326;DHT22;150;52.352;14.058;2024-03-22T06:30:43;9.20;33.50
326;DHT22;150;52.352;14.058;2024-03-22T06:33:10;9.20;33.50
326;DHT22;150;52.352;14.058;2024-03-22T06:35:35;9.10;34.10
326;DHT22;150;52.352;14.058;2024-03-22T06:38:02;9.00;33.30
326;DHT22;150;52.352;14.058;2024-03-22T06:40:29;9.00;33.90
326;DHT22;150;52.352;14.058;2024-03-22T06:42:56;9.20;34.30
326;DHT22;150;52.352;14.058;2024-03-22T06:45:22;9.20;33.50
326;DHT22;150;52.352;14.058;2024-03-22T06:47:48;9.20;33.50
326;DHT22;150;52.352;14.058;2024-03-22T06:50:14;9.30;33.10
326;DHT22;150;52.352;14.058;2024-03-22T06:52:43;9.30;33.40
326;DHT22;150;52.352;14.058;2024-03-22T06:55:08;9.30;33.30
326;DHT22;150;52.352;14.058;2024-03-22T06:57:36;9.50;33.30
326;DHT22;150;52.352;14.058;2024-03-22T07:00:02;9.50;32.40
326;DHT22;150;52.352;14.058;2024-03-22T07:02:29;9.60;32.20
326;DHT22;150;52.352;14.058;2024-03-22T07:04:55;9.60;31.30
326;DHT22;150;52.352;14.058;2024-03-22T07:07:21;9.60;32.20
326;DHT22;150;52.352;14.058;2024-03-22T07:09:47;9.70;32.10
326;DHT22;150;52.352;14.058;2024-03-22T07:12:13;9.80;31.90
326;DHT22;150;52.352;14.058;2024-03-22T07:14:40;9.90;31.30
326;DHT22;150;52.352;14.058;2024-03-22T07:17:07;10.00;31.20
326;DHT22;150;52.352;14.058;2024-03-22T07:19:34;9.90;31.30
326;DHT22;150;52.352;14.058;2024-03-22T07:22:00;9.80;31.40
326;DHT22;150;52.352;14.058;2024-03-22T07:24:26;9.80;32.40
326;DHT22;150;52.352;14.058;2024-03-22T07:26:52;9.90;33.50
326;DHT22;150;52.352;14.058;2024-03-22T07:29:18;9.90;32.80
326;DHT22;150;52.352;14.058;2024-03-22T07:31:46;9.80;32.70
326;DHT22;150;52.352;14.058;2024-03-22T07:34:12;9.80;33.30
326;DHT22;150;52.352;14.058;2024-03-22T07:36:39;9.80;34.00
326;DHT22;150;52.352;14.058;2024-03-22T07:39:04;9.80;34.00
326;DHT22;150;52.352;14.058;2024-03-22T07:41:32;9.90;33.40
326;DHT22;150;52.352;14.058;2024-03-22T07:43:58;9.90;34.10
326;DHT22;150;52.352;14.058;2024-03-22T07:46:25;10.00;33.70
326;DHT22;150;52.352;14.058;2024-03-22T07:48:52;10.10;34.30
326;DHT22;150;52.352;14.058;2024-03-22T07:51:19;10.20;32.60
326;DHT22;150;52.352;14.058;2024-03-22T07:53:45;10.20;32.40
326;DHT22;150;52.352;14.058;2024-03-22T07:56:12;10.20;32.80
326;DHT22;150;52.352;14.058;2024-03-22T07:58:38;10.30;33.00
326;DHT22;150;52.352;14.058;2024-03-22T08:01:04;10.50;32.80
326;DHT22;150;52.352;14.058;2024-03-22T08:03:30;10.50;31.10
326;DHT22;150;52.352;14.058;2024-03-22T08:05:58;10.60;30.40
326;DHT22;150;52.352;14.058;2024-03-22T08:08:24;10.60;32.00
326;DHT22;150;52.352;14.058;2024-03-22T08:10:51;10.70;30.80
326;DHT22;150;52.352;14.058;2024-03-22T08:13:16;10.60;31.30
326;DHT22;150;52.352;14.058;2024-03-22T08:15:43;10.70;32.00
326;DHT22;150;52.352;14.058;2024-03-22T08:18:11;10.90;31.30
326;DHT22;150;52.352;14.058;2024-03-22T08:20:38;10.80;30.00
326;DHT22;150;52.352;14.058;2024-03-22T08:23:06;10.80;30.30
326;DHT22;150;52.352;14.058;2024-03-22T08:25:32;10.70;30.50
326;DHT22;150;52.352;14.058;2024-03-22T08:27:59;10.60;30.40
326;DHT22;150;52.352;14.058;2024-03-22T08:30:25;10.60;30.70
326;DHT22;150;52.352;14.058;2024-03-22T08:32:52;10.60;30.60
326;DHT22;150;52.352;14.058;2024-03-22T08:35:18;10.60;31.00
326;DHT22;150;52.352;14.058;2024-03-22T08:37:44;10.50;31.30
326;DHT22;150;52.352;14.058;2024-03-22T08:40:12;10.60;31.90
326;DHT22;150;52.352;14.058;2024-03-22T08:42:39;10.70;32.40
326;DHT22;150;52.352;14.058;2024-03-22T08:45:06;10.90;32.00
326;DHT22;150;52.352;14.058;2024-03-22T08:47:33;10.90;31.60
326;DHT22;150;52.352;14.058;2024-03-22T08:49:59;10.90;31.70
326;DHT22;150;52.352;14.058;2024-03-22T08:52:25;10.90;31.00
326;DHT22;150;52.352;14.058;2024-03-22T08:54:51;10.90;31.30
326;DHT22;150;52.352;14.058;2024-03-22T08:57:20;10.90;30.20
326;DHT22;150;52.352;14.058;2024-03-22T08:59:46;11.00;31.20
326;DHT22;150;52.352;14.058;2024-03-22T09:02:12;11.10;31.10
326;DHT22;150;52.352;14.058;2024-03-22T09:04:38;11.10;30.20
326;DHT22;150;52.352;14.058;2024-03-22T09:07:05;11.30;30.00
326;DHT22;150;52.352;14.058;2024-03-22T09:09:30;11.50;30.10
326;DHT22;150;52.352;14.058;2024-03-22T09:11:57;11.60;29.70
326;DHT22;150;52.352;14.058;2024-03-22T09:14:24;11.70;28.90
326;DHT22;150;52.352;14.058;2024-03-22T09:16:51;11.80;28.30
326;DHT22;150;52.352;14.058;2024-03-22T09:19:16;11.90;28.10
326;DHT22;150;52.352;14.058;2024-03-22T09:21:43;11.80;27.60
326;DHT22;150;52.352;14.058;2024-03-22T09:24:09;11.70;28.20
326;DHT22;150;52.352;14.058;2024-03-22T09:26:35;11.60;28.00
326;DHT22;150;52.352;14.058;2024-03-22T09:29:01;11.70;28.50
326;DHT22;150;52.352;14.058;2024-03-22T09:31:30;11.70;28.50
326;DHT22;150;52.352;14.058;2024-03-22T09:33:56;11.90;28.30
326;DHT22;150;52.352;14.058;2024-03-22T09:36:22;12.00;28.40
326;DHT22;150;52.352;14.058;2024-03-22T09:38:48;12.10;27.70
326;DHT22;150;52.352;14.058;2024-03-22T09:41:15;12.10;27.30
326;DHT22;150;52.352;14.058;2024-03-22T09:43:43;12.00;28.40
326;DHT22;150;52.352;14.058;2024-03-22T09:46:13;12.00;28.90
326;DHT22;150;52.352;14.058;2024-03-22T09:48:41;12.00;29.20
326;DHT22;150;52.352;14.058;2024-03-22T09:51:08;12.10;29.00
326;DHT22;150;52.352;14.058;2024-03-22T09:53:34;11.90;28.90
326;DHT22;150;52.352;14.058;2024-03-22T09:56:02;11.90;29.20
326;DHT22;150;52.352;14.058;2024-03-22T09:58:28;11.80;29.20
326;DHT22;150;52.352;14.058;2024-03-22T10:00:54;11.80;28.70
326;DHT22;150;52.352;14.058;2024-03-22T10:03:25;11.70;29.00
326;DHT22;150;52.352;14.058;2024-03-22T10:05:53;11.70;28.70
326;DHT22;150;52.352;14.058;2024-03-22T10:08:19;11.80;29.10
326;DHT22;150;52.352;14.058;2024-03-22T10:10:46;11.90;29.30
326;DHT22;150;52.352;14.058;2024-03-22T10:13:11;11.90;28.30
326;DHT22;150;52.352;14.058;2024-03-22T10:15:38;11.90;28.50
326;DHT22;150;52.352;14.058;2024-03-22T10:18:04;12.10;28.50
326;DHT22;150;52.352;14.058;2024-03-22T10:20:31;12.30;28.40
326;DHT22;150;52.352;14.058;2024-03-22T10:22:58;12.60;28.50
326;DHT22;150;52.352;14.058;2024-03-22T10:25:26;12.90;27.50
326;DHT22;150;52.352;14.058;2024-03-22T10:27:53;13.20;27.10
326;DHT22;150;52.352;14.058;2024-03-22T10:30:19;13.40;25.30
326;DHT22;150;52.352;14.058;2024-03-22T10:32:45;13.40;25.40
326;DHT22;150;52.352;14.058;2024-03-22T10:35:14;13.40;25.30
326;DHT22;150;52.352;14.058;2024-03-22T10:37:40;13.40;25.20
326;DHT22;150;52.352;14.058;2024-03-22T10:40:09;13.30;24.90
326;DHT22;150;52.352;14.058;2024-03-22T10:42:35;13.30;25.20
326;DHT22;150;52.352;14.058;2024-03-22T10:45:02;13.20;25.40
326;DHT22;150;52.352;14.058;2024-03-22T10:47:30;13.20;25.50
326;DHT22;150;52.352;14.058;2024-03-22T10:50:03;13.30;25.70
326;DHT22;150;52.352;14.058;2024-03-22T10:52:31;13.20;25.20
326;DHT22;150;52.352;14.058;2024-03-22T10:54:59;13.10;25.30
326;DHT22;150;52.352;14.058;2024-03-22T10:57:27;13.10;25.40
326;DHT22;150;52.352;14.058;2024-03-22T10:59:55;13.10;25.20
326;DHT22;150;52.352;14.058;2024-03-22T11:02:23;13.20;25.50
326;DHT22;150;52.352;14.058;2024-03-22T11:04:55;13.30;25.80
326;DHT22;150;52.352;14.058;2024-03-22T11:07:21;13.50;25.80
326;DHT22;150;52.352;14.058;2024-03-22T11:09:52;13.50;24.70
326;DHT22;150;52.352;14.058;2024-03-22T11:12:18;13.50;24.00
326;DHT22;150;52.352;14.058;2024-03-22T11:14:48;13.30;24.40
326;DHT22;150;52.352;14.058;2024-03-22T11:17:15;13.30;24.70
326;DHT22;150;52.352;14.058;2024-03-22T11:19:42;13.30;24.90
326;DHT22;150;52.352;14.058;2024-03-22T11:22:08;13.40;25.20
326;DHT22;150;52.352;14.058;2024-03-22T11:24:37;13.40;25.00
326;DHT22;150;52.352;14.058;2024-03-22T11:27:03;13.50;24.70
326;DHT22;150;52.352;14.058;2024-03-22T11:29:30;13.60;24.20
326;DHT22;150;52.352;14.058;2024-03-22T11:31:57;13.70;24.10
326;DHT22;150;52.352;14.058;2024-03-22T11:34:23;13.80;23.70
326;DHT22;150;52.352;14.058;2024-03-22T11:36:49;13.80;23.30
326;DHT22;150;52.352;14.058;2024-03-22T11:39:17;13.80;23.10
326;DHT22;150;52.352;14.058;2024-03-22T11:41:43;13.80;23.50
326;DHT22;150;52.352;14.058;2024-03-22T11:44:10;13.90;23.20
326;DHT22;150;52.352;14.058;2024-03-22T11:46:36;13.90;23.50
326;DHT22;150;52.352;14.058;2024-03-22T11:49:04;14.00;24.00
326;DHT22;150;52.352;14.058;2024-03-22T11:51:30;14.10;23.30
326;DHT22;150;52.352;14.058;2024-03-22T11:53:57;14.40;23.70
326;DHT22;150;52.352;14.058;2024-03-22T11:56:24;14.40;22.70
326;DHT22;150;52.352;14.058;2024-03-22T11:58:58;14.50;23.50
326;DHT22;150;52.352;14.058;2024-03-22T12:01:24;14.70;22.30
326;DHT22;150;52.352;14.058;2024-03-22T12:03:50;14.90;22.80
326;DHT22;150;52.352;14.058;2024-03-22T12:06:17;15.30;22.10
326;DHT22;150;52.352;14.058;2024-03-22T12:08:44;15.40;21.50
326;DHT22;150;52.352;14.058;2024-03-22T12:11:10;15.40;21.40
326;DHT22;150;52.352;14.058;2024-03-22T12:13:37;15.50;21.20
326;DHT22;150;52.352;14.058;2024-03-22T12:16:04;15.50;21.20
326;DHT22;150;52.352;14.058;2024-03-22T12:18:31;15.50;20.40
326;DHT22;150;52.352;14.058;2024-03-22T12:20:56;15.50;20.30
326;DHT22;150;52.352;14.058;2024-03-22T12:23:24;15.30;20.30
326;DHT22;150;52.352;14.058;2024-03-22T12:25:50;15.10;20.70
326;DHT22;150;52.352;14.058;2024-03-22T12:28:17;14.90;21.40
326;DHT22;150;52.352;14.058;2024-03-22T12:30:43;14.70;21.30
326;DHT22;150;52.352;14.058;2024-03-22T12:33:10;14.60;22.20
326;DHT22;150;52.352;14.058;2024-03-22T12:35:36;14.50;22.50
326;DHT22;150;52.352;14.058;2024-03-22T12:38:02;14.50;22.80
326;DHT22;150;52.352;14.058;2024-03-22T12:40:30;14.40;22.50
326;DHT22;150;52.352;14.058;2024-03-22T12:42:58;14.30;22.80
326;DHT22;150;52.352;14.058;2024-03-22T12:45:24;14.30;23.10
326;DHT22;150;52.352;14.058;2024-03-22T12:47:51;14.10;23.20
326;DHT22;150;52.352;14.058;2024-03-22T12:50:16;13.90;23.70
326;DHT22;150;52.352;14.058;2024-03-22T12:52:43;13.90;24.90
326;DHT22;150;52.352;14.058;2024-03-22T12:55:10;13.90;25.50
326;DHT22;150;52.352;14.058;2024-03-22T12:57:38;13.80;26.60
326;DHT22;150;52.352;14.058;2024-03-22T13:00:05;13.70;27.40
326;DHT22;150;52.352;14.058;2024-03-22T13:02:38;13.60;27.70
326;DHT22;150;52.352;14.058;2024-03-22T13:05:04;13.50;28.30
326;DHT22;150;52.352;14.058;2024-03-22T13:07:31;13.50;29.10
326;DHT22;150;52.352;14.058;2024-03-22T13:09:57;13.50;29.30
326;DHT22;150;52.352;14.058;2024-03-22T13:12:25;13.40;29.50
326;DHT22;150;52.352;14.058;2024-03-22T13:14:52;13.40;29.80
326;DHT22;150;52.352;14.058;2024-03-22T13:17:19;13.40;30.10
326;DHT22;150;52.352;14.058;2024-03-22T13:19:45;13.30;30.80
326;DHT22;150;52.352;14.058;2024-03-22T13:22:12;13.20;31.10
326;DHT22;150;52.352;14.058;2024-03-22T13:24:38;13.30;31.70
326;DHT22;150;52.352;14.058;2024-03-22T13:27:04;13.30;31.70
326;DHT22;150;52.352;14.058;2024-03-22T13:29:30;13.30;32.10
326;DHT22;150;52.352;14.058;2024-03-22T13:31:58;13.30;32.30
326;DHT22;150;52.352;14.058;2024-03-22T13:34:24;13.30;33.30
326;DHT22;150;52.352;14.058;2024-03-22T13:36:52;13.30;33.90
326;DHT22;150;52.352;14.058;2024-03-22T13:39:17;13.30;34.40
326;DHT22;150;52.352;14.058;2024-03-22T13:41:44;13.40;34.60
326;DHT22;150;52.352;14.058;2024-03-22T13:44:10;13.40;35.00
326;DHT22;150;52.352;14.058;2024-03-22T13:46:36;13.50;35.50
326;DHT22;150;52.352;14.058;2024-03-22T13:49:14;13.50;36.30
326;DHT22;150;52.352;14.058;2024-03-22T13:51:42;13.50;36.50
326;DHT22;150;52.352;14.058;2024-03-22T13:54:08;13.60;36.70
326;DHT22;150;52.352;14.058;2024-03-22T13:56:34;13.40;36.60
326;DHT22;150;52.352;14.058;2024-03-22T13:59:00;13.30;37.90
326;DHT22;150;52.352;14.058;2024-03-22T14:01:27;13.00;35.80
326;DHT22;150;52.352;14.058;2024-03-22T14:03:53;12.80;35.70
326;DHT22;150;52.352;14.058;2024-03-22T14:06:21;12.50;35.10
326;DHT22;150;52.352;14.058;2024-03-22T14:08:46;12.30;36.30
326;DHT22;150;52.352;14.058;2024-03-22T14:11:13;12.10;36.10
326;DHT22;150;52.352;14.058;2024-03-22T14:13:38;12.00;36.50
326;DHT22;150;52.352;14.058;2024-03-22T14:16:05;11.90;37.00
326;DHT22;150;52.352;14.058;2024-03-22T14:18:32;11.90;37.70
326;DHT22;150;52.352;14.058;2024-03-22T14:21:00;11.90;38.40
326;DHT22;150;52.352;14.058;2024-03-22T14:23:27;11.80;40.00
326;DHT22;150;52.352;14.058;2024-03-22T14:25:54;11.80;39.80
326;DHT22;150;52.352;14.058;2024-03-22T14:28:20;11.80;40.30
326;DHT22;150;52.352;14.058;2024-03-22T14:30:47;11.80;40.40
326;DHT22;150;52.352;14.058;2024-03-22T14:33:12;11.80;40.70
326;DHT22;150;52.352;14.058;2024-03-22T14:35:39;11.80;40.80
326;DHT22;150;52.352;14.058;2024-03-22T14:38:04;11.80;41.60
326;DHT22;150;52.352;14.058;2024-03-22T14:40:32;11.90;41.30
326;DHT22;150;52.352;14.058;2024-03-22T14:43:02;11.80;41.60
326;DHT22;150;52.352;14.058;2024-03-22T14:45:28;11.80;41.80
326;DHT22;150;52.352;14.058;2024-03-22T14:47:54;11.70;42.50
326;DHT22;150;52.352;14.058;2024-03-22T14:50:21;11.80;42.90
326;DHT22;150;52.352;14.058;2024-03-22T14:52:48;11.70;42.40
326;DHT22;150;52.352;14.058;2024-03-22T14:55:15;11.60;43.10
326;DHT22;150;52.352;14.058;2024-03-22T14:57:42;11.60;43.70
326;DHT22;150;52.352;14.058;2024-03-22T15:00:09;11.70;44.60
326;DHT22;150;52.352;14.058;2024-03-22T15:02:38;11.70;44.20
326;DHT22;150;52.352;14.058;2024-03-22T15:05:04;11.70;43.90
326;DHT22;150;52.352;14.058;2024-03-22T15:07:30;11.80;43.80
326;DHT22;150;52.352;14.058;2024-03-22T15:09:56;11.70;42.50
326;DHT22;150;52.352;14.058;2024-03-22T15:12:23;11.60;42.30
326;DHT22;150;52.352;14.058;2024-03-22T15:14:52;11.50;42.90
326;DHT22;150;52.352;14.058;2024-03-22T15:17:19;11.50;42.90
326;DHT22;150;52.352;14.058;2024-03-22T15:19:48;11.50;43.20
326;DHT22;150;52.352;14.058;2024-03-22T15:22:14;11.50;44.10
326;DHT22;150;52.352;14.058;2024-03-22T15:24:43;11.60;44.70
326;DHT22;150;52.352;14.058;2024-03-22T15:27:10;11.60;44.10
326;DHT22;150;52.352;14.058;2024-03-22T15:29:36;11.60;44.50
326;DHT22;150;52.352;14.058;2024-03-22T15:32:05;11.60;44.90
326;DHT22;150;52.352;14.058;2024-03-22T15:34:30;11.60;44.60
326;DHT22;150;52.352;14.058;2024-03-22T15:36:57;11.60;45.10
326;DHT22;150;52.352;14.058;2024-03-22T15:39:22;11.60;45.20
326;DHT22;150;52.352;14.058;2024-03-22T15:41:51;11.50;45.20
326;DHT22;150;52.352;14.058;2024-03-22T15:44:16;11.50;46.10
326;DHT22;150;52.352;14.058;2024-03-22T15:46:43;11.50;46.10
326;DHT22;150;52.352;14.058;2024-03-22T15:49:10;11.50;46.20
326;DHT22;150;52.352;14.058;2024-03-22T15:51:36;11.50;45.80
326;DHT22;150;52.352;14.058;2024-03-22T15:54:05;11.40;46.00
326;DHT22;150;52.352;14.058;2024-03-22T15:56:31;11.40;46.00
326;DHT22;150;52.352;14.058;2024-03-22T15:58:57;11.40;46.00
326;DHT22;150;52.352;14.058;2024-03-22T16:01:23;11.30;45.90
326;DHT22;150;52.352;14.058;2024-03-22T16:03:49;11.30;45.80
326;DHT22;150;52.352;14.058;2024-03-22T16:06:18;11.30;46.00
326;DHT22;150;52.352;14.058;2024-03-22T16:08:45;11.20;46.10
326;DHT22;150;52.352;14.058;2024-03-22T16:11:12;11.10;46.30
326;DHT22;150;52.352;14.058;2024-03-22T16:13:37;11.10;46.60
326;DHT22;150;52.352;14.058;2024-03-22T16:16:04;11.10;46.60
326;DHT22;150;52.352;14.058;2024-03-22T16:18:30;10.90;47.20
326;DHT22;150;52.352;14.058;2024-03-22T16:20:59;10.90;48.30